»·PEaware :: N734KU KSNA-KCRQ

N734KU :: KSNA-KCRQ

FLIGHT INFORMATION

Flight Status: Arrived
Operator: Privately registered:
United States
More flights under this callsign
Pilot: Chris W. (16363)
Aircraft: CESSNA 172 SKYHAWK
(C172)
More flights by this aircraft type
Origin: KSNA John Wayne-Orange Co
United States
Destination: KCRQ McClellan-Palomar
United States
More flights between these airports :: More routes between these airports
Route: V23 OCN
File this flight plan on PilotEdge
Remarks: I-2 practice
Altitude:
(Current/Filed)
5,000ft
Speed:
(Current/Filed)
100kts
Departed: 02-Dec-18 04:44 PM
Arrived: 02-Dec-18 05:27 PM
Distance/Time
Traveled:
44nm/0:42
Distance/Time
To Go:
Arrived

Flight Plot

Page will automatically refresh every two minutes.


Map Options




Map Legend


Flown Route
Filed Route
Departure Airport
Arrival Airport
Navaid (VOR, NDB)
Fix

Horizontal Profiles

Position Reports

Time Latitude Longitude Heading Altitude Ground
Speed
02-Dec-18 16:33 33.676205 -117.871104 212 60ft 0kts
02-Dec-18 16:34 33.676205 -117.871104 212 60ft 0kts
02-Dec-18 16:35 33.676205 -117.871104 212 60ft 0kts
02-Dec-18 16:36 33.676205 -117.871104 212 60ft 0kts
02-Dec-18 16:37 33.676205 -117.871104 212 60ft 0kts
02-Dec-18 16:38 33.676205 -117.871104 212 60ft 0kts
02-Dec-18 16:39 33.675727 -117.870363 68 60ft 7kts
02-Dec-18 16:40 33.679195 -117.868140 19 60ft 21kts
02-Dec-18 16:41 33.681221 -117.866492 110 60ft 0kts
02-Dec-18 16:42 33.681221 -117.866492 110 60ft 0kts
02-Dec-18 16:43 33.681221 -117.866492 110 60ft 0kts
02-Dec-18 16:44 33.681221 -117.866492 110 60ft 0kts
02-Dec-18 16:45 33.681221 -117.866492 110 60ft 0kts
02-Dec-18 16:46 33.680901 -117.865733 141 60ft 11kts
02-Dec-18 16:47 33.661454 -117.873906 187 993ft 80kts
02-Dec-18 16:48 33.644613 -117.878797 202 1902ft 81kts
02-Dec-18 16:49 33.624001 -117.886524 188 2980ft 77kts
02-Dec-18 16:50 33.602363 -117.890736 186 3960ft 81kts
02-Dec-18 16:51 33.576338 -117.896820 189 4950ft 95kts
02-Dec-18 16:52 33.552255 -117.901907 186 4993ft 107kts
02-Dec-18 16:53 33.523611 -117.910265 195 4949ft 111kts
02-Dec-18 16:54 33.504903 -117.891754 112 4997ft 101kts
02-Dec-18 16:55 33.495402 -117.859937 104 4952ft 102kts
02-Dec-18 16:56 33.485514 -117.829386 112 4975ft 99kts
02-Dec-18 16:57 33.474583 -117.799326 107 4978ft 98kts
02-Dec-18 16:58 33.465339 -117.768374 110 5166ft 104kts
02-Dec-18 16:59 33.452812 -117.734017 112 5075ft 114kts
02-Dec-18 17:00 33.440809 -117.698959 113 5089ft 113kts
02-Dec-18 17:01 33.427686 -117.664766 117 5095ft 113kts
02-Dec-18 17:02 33.413897 -117.630139 113 5026ft 115kts
02-Dec-18 17:03 33.402358 -117.594403 110 4966ft 115kts
02-Dec-18 17:04 33.395110 -117.557627 97 4940ft 114kts
02-Dec-18 17:05 33.388899 -117.520438 102 4906ft 115kts
02-Dec-18 17:06 33.380674 -117.483644 108 4889ft 114kts
02-Dec-18 17:07 33.372412 -117.447152 107 4867ft 114kts
02-Dec-18 17:08 33.363501 -117.412888 112 4848ft 114kts
02-Dec-18 17:09 33.356140 -117.382250 104 4915ft 111kts
02-Dec-18 17:10 33.347930 -117.352520 100 4955ft 112kts
02-Dec-18 17:11 33.341908 -117.315879 100 4873ft 116kts
02-Dec-18 17:12 33.334740 -117.278501 101 4844ft 115kts
02-Dec-18 17:13 33.325327 -117.242344 110 4849ft 114kts
02-Dec-18 17:14 33.313915 -117.207121 107 4865ft 113kts
02-Dec-18 17:15 33.306294 -117.170567 106 4873ft 113kts
02-Dec-18 17:16 33.299286 -117.133812 100 4883ft 113kts
02-Dec-18 17:17 33.292728 -117.096935 105 4889ft 113kts
02-Dec-18 17:18 33.284245 -117.061231 105 4892ft 113kts
02-Dec-18 17:19 33.270409 -117.030356 178 4884ft 110kts
02-Dec-18 17:20 33.239409 -117.031732 159 4858ft 113kts
02-Dec-18 17:21 33.209442 -117.020827 168 4357ft 113kts
02-Dec-18 17:22 33.182443 -117.038772 221 3889ft 116kts
02-Dec-18 17:23 33.161062 -117.066565 253 3499ft 123kts
02-Dec-18 17:24 33.158772 -117.105461 259 3493ft 118kts
02-Dec-18 17:25 33.150552 -117.142898 262 3349ft 117kts
02-Dec-18 17:26 33.143597 -117.181762 257 2257ft 125kts
02-Dec-18 17:27 33.138374 -117.218688 255 1334ft 90kts
02-Dec-18 17:28 33.133738 -117.247471 253 769ft 91kts
02-Dec-18 17:29 33.128868 -117.276262 253 332ft 73kts
02-Dec-18 17:30 33.127795 -117.282063 229 312ft 0kts
02-Dec-18 17:31 33.127795 -117.282063 229 312ft 0kts
02-Dec-18 17:32 33.129455 -117.272662 255 304ft 14kts
02-Dec-18 17:33 33.127519 -117.279960 219 309ft 9kts
02-Dec-18 17:34 33.127445 -117.280028 215 309ft 0kts
02-Dec-18 17:35 33.127357 -117.280098 211 309ft 0kts
02-Dec-18 17:36 33.127263 -117.280162 207 309ft 0kts
02-Dec-18 17:37 33.127162 -117.280220 203 309ft 0kts

Navigation Log

Ident Type
Flight plan parsing failed, navigation log unavailable